Overview Statistics Trail Chart Weather Telemetry Raw packets
 

This is the latest recevied weather packets stored in our database for station/object 4S6DRJ-13. If no packets are shown the sender has not sent any weather packets the latest 10 day(s).

<< 218 219 220 221 222 223 224 >>
Time Temp. Humidity Pressure Rain* Wind** Luminosity Snow
1788143769 28.89° C 80% 1010.1 hPa 0 mm 0.45 m/s, 162° 413 W/m² -
1788143708 28.89° C 80% 1010.2 hPa 0 mm 1.79 m/s, 107° 388 W/m² -
1788143647 28.89° C 81% 1010.1 hPa 0 mm 0.89 m/s, 259° 364 W/m² -
1788143585 28.89° C 81% 1010.1 hPa 0 mm 1.79 m/s, 73° 355 W/m² -
1788143525 28.89° C 81% 1010 hPa 0 mm 0.89 m/s, 301° 346 W/m² -
1788143464 28.33° C 81% 1010.2 hPa 0 mm 0 m/s 339 W/m² -
1788143402 28.33° C 81% 1010.1 hPa 0 mm 0 m/s 342 W/m² -
1788143341 28.33° C 81% 1010.2 hPa 0 mm 0.89 m/s, 212° 343 W/m² -
1788143281 28.33° C 81% 1009.9 hPa 0 mm 0.89 m/s, 352° 192 W/m² -
1788143219 28.33° C 81% 1010.2 hPa 0 mm 2.68 m/s, 351° 177 W/m² -
1788143158 28.33° C 81% 1010.1 hPa 0 mm 1.79 m/s, 296° 149 W/m² -
1788143097 28.33° C 82% 1010.1 hPa 0 mm 0 m/s 210 W/m² -
1788143036 28.33° C 81% 1010 hPa 0 mm 1.34 m/s, 302° 318 W/m² -
1788142976 28.33° C 82% 1010 hPa 0 mm 0.89 m/s, 50° 286 W/m² -
1788142914 28.33° C 82% 1009.9 hPa 0 mm 0.89 m/s, 267° 203 W/m² -
1788142854 28.33° C 81% 1010 hPa 0 mm 1.34 m/s, 0° 200 W/m² -
1788142793 28.33° C 81% 1009.9 hPa 0 mm 0.89 m/s, 290° 180 W/m² -
1788142744 28.33° C 81% 1010.1 hPa 0 mm 1.79 m/s, 203° 164 W/m² -
1788142671 28.33° C 81% 1009.8 hPa 0 mm 1.34 m/s, 247° 134 W/m² -
1788142610 28.33° C 81% 1010 hPa 0 mm 1.79 m/s, 174° 118 W/m² -
1788142549 28.33° C 81% 1009.9 hPa 0 mm 1.79 m/s, 339° 121 W/m² -
1788142489 28.33° C 81% 1009.8 hPa 0 mm 1.79 m/s, 229° 128 W/m² -
1788142427 28.33° C 82% 1009.7 hPa 0 mm 1.34 m/s, 237° 241 W/m² -
1788142366 28.33° C 82% 1009.7 hPa 0 mm 0.89 m/s, 332° 250 W/m² -
1788142305 28.33° C 82% 1010 hPa 0 mm 0.45 m/s, 243° 174 W/m² -

* Rain latest hour (hover to see other rain measurements)
** Current wind speed in m/s (hover to see current wind gust speed)